createdAt,value
2022-11-29T00:00:52.529Z,23.15
2022-11-29T00:03:27.877Z,20.95
2022-11-29T00:06:13.131Z,19.90
2022-11-29T00:08:46.525Z,20.27
2022-11-29T00:11:41.381Z,22.40
2022-11-29T00:14:16.225Z,19.15
2022-11-29T00:16:54.375Z,20.85
2022-11-29T00:19:26.911Z,21.73
2022-11-29T00:22:00.295Z,19.58
2022-11-29T00:24:33.202Z,20.55
2022-11-29T00:27:05.958Z,20.92
2022-11-29T00:29:38.431Z,19.80
2022-11-29T00:32:11.207Z,22.95
2022-11-29T00:34:44.019Z,20.88
2022-11-29T00:37:17.074Z,20.33
2022-11-29T00:39:49.599Z,21.67
2022-11-29T00:42:22.367Z,22.30
2022-11-29T00:44:54.927Z,21.52
2022-11-29T00:47:27.715Z,20.73
2022-11-29T00:50:00.198Z,20.80
2022-11-29T00:52:33.093Z,23.58
2022-11-29T00:55:06.098Z,22.30
2022-11-29T00:57:39.177Z,23.08
2022-11-29T01:00:12.374Z,21.73
2022-11-29T01:02:45.170Z,24.73
2022-11-29T01:05:17.859Z,21.90
2022-11-29T01:07:50.723Z,23.90
2022-11-29T01:10:23.322Z,22.02
2022-11-29T01:12:56.498Z,20.63
2022-11-29T01:15:29.210Z,22.48
2022-11-29T01:18:02.375Z,22.38
2022-11-29T01:20:34.946Z,20.75
2022-11-29T01:23:07.743Z,20.70
2022-11-29T01:25:40.247Z,20.60
2022-11-29T01:28:13.059Z,20.67
2022-11-29T01:30:46.672Z,21.05
2022-11-29T01:33:19.982Z,21.42
2022-11-29T01:35:54.498Z,19.65
2022-11-29T01:38:27.455Z,20.33
2022-11-29T01:41:02.719Z,20.02
2022-11-29T01:44:14.150Z,20.48
2022-11-29T01:46:48.137Z,19.48
2022-11-29T01:49:28.856Z,20.05
2022-11-29T01:54:58.370Z,16.73
2022-11-29T01:57:32.995Z,19.63
2022-11-29T02:00:11.082Z,19.45
2022-11-29T02:02:58.848Z,18.25
2022-11-29T02:05:33.415Z,19.17
2022-11-29T02:08:07.101Z,19.23
2022-11-29T02:11:08.440Z,18.60
2022-11-29T02:14:10.165Z,18.02
2022-11-29T02:16:57.730Z,17.95
2022-11-29T02:19:33.014Z,16.92
2022-11-29T02:22:21.035Z,17.15
2022-11-29T02:25:17.294Z,16.92
2022-11-29T02:28:13.563Z,17.83
2022-11-29T02:31:12.249Z,18.10
2022-11-29T02:34:26.547Z,17.10
2022-11-29T02:37:16.889Z,17.88
2022-11-29T02:39:58.250Z,17.40
2022-11-29T02:42:57.016Z,15.95
2022-11-29T02:45:35.875Z,16.88
2022-11-29T02:48:14.437Z,17.40
2022-11-29T02:50:58.869Z,18.17
2022-11-29T02:53:38.561Z,17.88
2022-11-29T02:56:27.398Z,17.50
2022-11-29T02:59:05.277Z,19.48
2022-11-29T03:01:48.737Z,20.00
2022-11-29T03:04:33.264Z,18.42
2022-11-29T03:07:28.100Z,17.60
2022-11-29T03:10:12.686Z,17.17
2022-11-29T03:12:48.848Z,18.60
2022-11-29T03:15:32.841Z,18.80
2022-11-29T03:18:35.405Z,20.02
2022-11-29T03:21:18.530Z,19.38
2022-11-29T03:23:55.196Z,20.13
2022-11-29T03:26:44.054Z,20.45
2022-11-29T03:29:38.209Z,19.08
2022-11-29T03:32:38.550Z,18.08
2022-11-29T03:35:42.425Z,18.30
2022-11-29T03:38:44.701Z,17.20
2022-11-29T03:41:43.487Z,19.35
2022-11-29T03:44:27.181Z,18.88
2022-11-29T03:47:15.438Z,17.75
2022-11-29T03:50:20.429Z,16.85
2022-11-29T03:53:03.165Z,17.55
2022-11-29T03:56:25.002Z,18.02
2022-11-29T03:59:10.425Z,17.02
2022-11-29T04:02:18.713Z,16.90
2022-11-29T04:04:57.433Z,15.35
2022-11-29T04:07:50.929Z,17.70
2022-11-29T04:11:02.353Z,16.60
2022-11-29T04:13:59.363Z,15.23
2022-11-29T04:16:53.420Z,14.77
2022-11-29T04:19:59.508Z,16.00
2022-11-29T04:23:01.816Z,16.67
2022-11-29T04:25:44.331Z,16.63
2022-11-29T04:28:54.003Z,16.50
2022-11-29T04:31:47.590Z,14.95
2022-11-29T04:34:36.939Z,15.52
2022-11-29T04:38:06.025Z,15.93
2022-11-29T04:41:17.238Z,15.57
2022-11-29T04:43:58.576Z,15.63
2022-11-29T04:46:51.445Z,16.83
2022-11-29T04:49:42.565Z,15.77
2022-11-29T04:53:08.517Z,16.45
2022-11-29T04:56:02.964Z,15.80
2022-11-29T04:58:50.129Z,14.25
2022-11-29T05:01:34.649Z,16.05
2022-11-29T05:04:20.227Z,15.57
2022-11-29T05:07:06.962Z,15.90
2022-11-29T05:10:03.486Z,15.70
2022-11-29T05:12:45.938Z,15.10
2022-11-29T05:15:23.830Z,15.43
2022-11-29T05:18:03.778Z,17.23
2022-11-29T05:21:03.294Z,17.02
2022-11-29T05:23:45.677Z,14.85
2022-11-29T05:26:31.389Z,15.82
2022-11-29T05:29:14.245Z,17.13
2022-11-29T05:32:08.979Z,16.52
2022-11-29T05:34:44.537Z,15.07
2022-11-29T05:37:45.341Z,16.17
2022-11-29T05:42:59.199Z,14.82
2022-11-29T05:46:30.317Z,15.02
2022-11-29T05:49:27.636Z,14.70
2022-11-29T05:52:18.331Z,15.07
2022-11-29T05:55:07.277Z,16.40
2022-11-29T05:58:00.902Z,15.35
2022-11-29T06:01:18.516Z,16.20
2022-11-29T06:04:14.968Z,16.38
2022-11-29T06:07:00.531Z,16.10
2022-11-29T06:09:40.647Z,15.98
2022-11-29T06:15:23.542Z,16.77
2022-11-29T06:18:23.717Z,15.00
2022-11-29T06:21:13.261Z,16.40
2022-11-29T06:23:58.951Z,16.45
2022-11-29T06:26:46.226Z,15.02
2022-11-29T06:30:18.190Z,15.45
2022-11-29T06:33:09.582Z,14.98
2022-11-29T06:36:11.491Z,16.77
2022-11-29T06:38:44.294Z,15.20
2022-11-29T06:41:21.381Z,16.00
2022-11-29T06:44:43.117Z,15.73
2022-11-29T06:47:54.994Z,19.65
2022-11-29T06:50:39.318Z,15.45
2022-11-29T06:53:54.393Z,17.42
2022-11-29T06:56:32.552Z,15.88
2022-11-29T06:59:32.919Z,18.05
2022-11-29T07:02:18.056Z,16.77
2022-11-29T07:05:03.821Z,17.08
2022-11-29T07:07:36.858Z,16.70
2022-11-29T07:10:20.392Z,16.48
2022-11-29T07:12:53.135Z,16.33
2022-11-29T07:15:26.343Z,17.25
2022-11-29T07:18:39.252Z,15.98
2022-11-29T07:21:20.511Z,16.52
2022-11-29T07:24:07.779Z,15.60
2022-11-29T07:27:07.937Z,15.98
2022-11-29T07:29:46.029Z,16.95
2022-11-29T07:32:34.411Z,15.68
2022-11-29T07:35:39.272Z,17.02
2022-11-29T07:38:45.562Z,17.65
2022-11-29T07:41:27.615Z,16.67
2022-11-29T07:44:23.126Z,17.45
2022-11-29T07:46:55.642Z,15.73
2022-11-29T07:49:28.573Z,17.73
2022-11-29T07:52:01.085Z,17.42
2022-11-29T07:54:33.966Z,16.25
2022-11-29T07:57:06.507Z,18.15
2022-11-29T07:59:39.328Z,16.45
2022-11-29T08:02:12.241Z,16.15
2022-11-29T08:04:46.240Z,15.55
2022-11-29T08:07:18.888Z,16.88
2022-11-29T08:09:51.938Z,18.08
2022-11-29T08:12:24.420Z,15.68
2022-11-29T08:14:57.356Z,15.45
2022-11-29T08:17:29.857Z,17.00
2022-11-29T08:20:04.301Z,15.57
2022-11-29T08:22:38.044Z,15.80
2022-11-29T08:25:11.976Z,15.27
2022-11-29T08:27:44.426Z,19.17
2022-11-29T08:30:22.385Z,16.65
2022-11-29T08:32:54.992Z,17.52
2022-11-29T08:35:27.915Z,17.70
2022-11-29T08:38:00.498Z,17.50
2022-11-29T08:40:33.481Z,19.00
2022-11-29T08:43:05.983Z,16.98
2022-11-29T08:45:38.832Z,16.27
2022-11-29T08:48:13.952Z,17.80
2022-11-29T08:50:49.532Z,16.15
2022-11-29T08:53:41.226Z,17.95
2022-11-29T08:59:11.295Z,16.48
2022-11-29T09:01:44.187Z,17.65
2022-11-29T09:04:17.206Z,16.20
2022-11-29T09:06:50.484Z,17.58
2022-11-29T09:09:23.027Z,17.30
2022-11-29T09:11:55.801Z,17.70
2022-11-29T09:14:28.913Z,17.08
2022-11-29T09:17:02.122Z,17.63
2022-11-29T09:19:34.685Z,16.20
2022-11-29T09:22:07.466Z,16.50
2022-11-29T09:24:39.965Z,16.90
2022-11-29T09:27:13.196Z,17.25
2022-11-29T09:29:45.760Z,17.25
2022-11-29T09:32:18.543Z,16.23
2022-11-29T09:34:51.155Z,17.50
2022-11-29T09:37:23.940Z,18.83
2022-11-29T09:39:56.411Z,16.98
2022-11-29T09:42:45.840Z,17.92
2022-11-29T09:45:24.406Z,15.65
2022-11-29T09:48:18.773Z,14.93
2022-11-29T09:51:31.146Z,17.73
2022-11-29T09:54:37.622Z,16.80
2022-11-29T09:57:11.240Z,16.27
2022-11-29T09:59:48.819Z,14.95
2022-11-29T10:02:45.470Z,16.08
2022-11-29T10:05:47.559Z,16.10
2022-11-29T10:08:38.961Z,16.08
2022-11-29T10:11:21.384Z,16.15
2022-11-29T10:14:11.967Z,15.68
2022-11-29T10:16:54.193Z,15.90
2022-11-29T10:19:50.653Z,17.00
2022-11-29T10:22:34.898Z,15.18
2022-11-29T10:25:10.521Z,18.52
2022-11-29T10:27:43.433Z,17.33
2022-11-29T10:30:16.645Z,16.40
2022-11-29T10:32:56.753Z,16.83
2022-11-29T10:35:29.621Z,17.52
2022-11-29T10:41:06.510Z,16.70
2022-11-29T10:43:39.415Z,16.23
2022-11-29T10:46:23.288Z,16.40
2022-11-29T10:48:58.730Z,15.65
2022-11-29T10:51:32.033Z,16.88
2022-11-29T10:54:20.022Z,16.90
2022-11-29T10:56:52.645Z,14.35
2022-11-29T10:59:28.763Z,15.35
2022-11-29T11:02:02.262Z,15.07
2022-11-29T11:04:43.190Z,15.45
2022-11-29T11:07:35.739Z,16.08
2022-11-29T11:10:29.646Z,18.08
2022-11-29T11:13:04.876Z,15.38
2022-11-29T11:15:37.949Z,18.33
2022-11-29T11:18:23.766Z,17.27
2022-11-29T11:24:24.381Z,19.05
2022-11-29T11:26:58.001Z,17.27
2022-11-29T11:29:41.058Z,15.55
2022-11-29T11:32:20.682Z,16.15
2022-11-29T11:34:57.628Z,18.35
2022-11-29T11:37:33.414Z,17.38
2022-11-29T11:40:41.376Z,19.38
2022-11-29T11:43:21.598Z,16.77
2022-11-29T11:45:54.857Z,16.77
2022-11-29T11:48:28.102Z,18.13
2022-11-29T11:51:01.789Z,16.45
2022-11-29T11:53:37.673Z,17.95
2022-11-29T11:56:14.100Z,18.88
2022-11-29T11:58:54.264Z,17.70
2022-11-29T12:01:38.301Z,19.95
2022-11-29T12:04:24.997Z,17.98
2022-11-29T12:07:15.914Z,17.88
2022-11-29T12:09:55.828Z,18.38
2022-11-29T12:12:32.555Z,18.83
2022-11-29T12:15:18.926Z,18.80
2022-11-29T12:18:32.827Z,18.75
2022-11-29T12:21:14.371Z,18.70
2022-11-29T12:23:58.924Z,17.55
2022-11-29T12:29:35.450Z,18.73
2022-11-29T12:32:26.062Z,20.83
2022-11-29T12:35:37.077Z,19.08
2022-11-29T12:38:12.899Z,18.58
2022-11-29T12:40:57.322Z,18.17
2022-11-29T12:44:05.110Z,19.52
2022-11-29T12:46:38.600Z,19.63
2022-11-29T12:49:26.601Z,17.75
2022-11-29T12:52:18.350Z,17.08
2022-11-29T12:55:01.018Z,18.88
2022-11-29T12:57:39.770Z,19.60
2022-11-29T13:00:19.933Z,16.55
2022-11-29T13:03:14.498Z,20.08
2022-11-29T13:06:03.429Z,19.05
2022-11-29T13:08:51.261Z,18.92
2022-11-29T13:11:45.655Z,20.15
2022-11-29T13:14:43.860Z,18.63
2022-11-29T13:17:36.729Z,19.55
2022-11-29T13:20:47.722Z,17.77
2022-11-29T13:23:39.037Z,17.17
2022-11-29T13:26:17.148Z,19.10
2022-11-29T13:28:50.889Z,17.02
2022-11-29T13:31:25.524Z,15.82
2022-11-29T13:34:13.409Z,15.38
2022-11-29T13:36:54.758Z,15.07
2022-11-29T13:39:49.598Z,14.68
2022-11-29T13:42:26.017Z,15.13
2022-11-29T13:45:03.147Z,16.30
2022-11-29T13:47:52.454Z,14.75
2022-11-29T13:50:44.967Z,15.70
2022-11-29T13:53:48.524Z,14.38
2022-11-29T13:56:48.240Z,13.60
2022-11-29T14:02:51.966Z,14.63
2022-11-29T14:05:27.471Z,14.55
2022-11-29T14:08:54.587Z,15.45
2022-11-29T14:11:50.159Z,16.05
2022-11-29T14:14:48.069Z,17.85
2022-11-29T14:17:47.775Z,16.73
2022-11-29T14:20:22.956Z,16.50
2022-11-29T14:23:05.075Z,17.10
2022-11-29T14:26:00.810Z,17.88
2022-11-29T14:28:35.726Z,18.10
2022-11-29T14:31:10.073Z,17.52
2022-11-29T14:34:08.129Z,17.55
2022-11-29T14:37:08.841Z,17.70
2022-11-29T14:39:49.104Z,18.38
2022-11-29T14:42:24.322Z,16.88
2022-11-29T14:45:01.105Z,17.45
2022-11-29T14:47:46.953Z,17.88
2022-11-29T14:50:40.011Z,17.73
2022-11-29T14:53:32.972Z,16.90
2022-11-29T14:56:30.746Z,17.05
2022-11-29T14:59:43.038Z,17.10
2022-11-29T15:02:40.402Z,17.10
2022-11-29T15:05:28.612Z,18.70
2022-11-29T15:08:09.713Z,16.73
2022-11-29T15:10:52.186Z,17.45
2022-11-29T15:13:29.422Z,17.38
2022-11-29T15:16:17.278Z,18.35
2022-11-29T15:19:08.387Z,18.58
2022-11-29T15:24:32.136Z,14.90
2022-11-29T15:27:04.756Z,16.38
2022-11-29T15:29:37.605Z,16.77
2022-11-29T15:32:13.619Z,16.75
2022-11-29T15:34:51.817Z,17.83
2022-11-29T15:37:38.284Z,16.85
2022-11-29T15:40:23.469Z,16.48
2022-11-29T15:43:10.599Z,14.90
2022-11-29T15:45:52.073Z,16.88
2022-11-29T15:48:28.808Z,14.88
2022-11-29T15:51:26.617Z,15.25
2022-11-29T15:54:21.126Z,15.45
2022-11-29T15:56:58.610Z,14.38
2022-11-29T15:59:37.409Z,16.08
2022-11-29T16:02:27.932Z,15.52
2022-11-29T16:05:23.072Z,17.88
2022-11-29T16:08:03.633Z,14.93
2022-11-29T16:10:43.541Z,14.85
2022-11-29T16:13:32.015Z,17.48
2022-11-29T16:16:12.674Z,13.77
2022-11-29T16:18:48.315Z,16.25
2022-11-29T16:21:29.858Z,16.60
2022-11-29T16:24:19.907Z,16.42
2022-11-29T16:26:56.877Z,17.58
2022-11-29T16:29:34.365Z,18.08
2022-11-29T16:32:27.798Z,17.85
2022-11-29T16:35:23.748Z,17.08
2022-11-29T16:37:56.708Z,17.80
2022-11-29T16:40:32.399Z,17.35
2022-11-29T16:43:06.802Z,19.23
2022-11-29T16:45:41.549Z,19.42
2022-11-29T16:48:23.208Z,16.80
2022-11-29T16:51:12.579Z,17.65
2022-11-29T16:53:51.124Z,17.85
2022-11-29T16:56:27.798Z,17.77
2022-11-29T16:59:24.597Z,18.90
2022-11-29T17:01:56.826Z,18.60
2022-11-29T17:04:29.727Z,18.80
2022-11-29T17:07:02.719Z,17.55
2022-11-29T17:09:35.357Z,20.23
2022-11-29T17:12:13.123Z,18.98
2022-11-29T17:14:46.021Z,17.45
2022-11-29T17:17:19.499Z,19.30
2022-11-29T17:19:52.131Z,18.38
2022-11-29T17:22:24.988Z,19.20
2022-11-29T17:24:57.567Z,19.33
2022-11-29T17:27:30.508Z,20.58
2022-11-29T17:30:03.618Z,18.85
2022-11-29T17:32:37.023Z,18.98
2022-11-29T17:35:09.817Z,18.70
2022-11-29T17:37:42.735Z,18.02
2022-11-29T17:40:15.515Z,19.65
2022-11-29T17:42:57.189Z,18.58
2022-11-29T17:45:29.868Z,17.95
2022-11-29T17:48:02.686Z,18.02
2022-11-29T17:50:37.934Z,21.13
2022-11-29T17:53:10.777Z,18.95
2022-11-29T17:55:43.451Z,19.33
2022-11-29T17:58:16.249Z,17.75
2022-11-29T18:00:48.831Z,20.15
2022-11-29T18:03:21.648Z,17.63
2022-11-29T18:05:57.596Z,17.75
2022-11-29T18:08:30.381Z,17.33
2022-11-29T18:11:08.341Z,14.68
2022-11-29T18:13:41.607Z,15.63
2022-11-29T18:16:21.252Z,15.30
2022-11-29T18:18:56.100Z,15.38
2022-11-29T18:21:29.240Z,15.60
2022-11-29T18:24:04.035Z,16.17
2022-11-29T18:26:37.877Z,14.48
2022-11-29T18:29:11.204Z,14.75
2022-11-29T18:31:45.495Z,14.70
2022-11-29T18:34:18.589Z,14.82
2022-11-29T18:36:51.110Z,15.43
2022-11-29T18:39:25.046Z,14.55
2022-11-29T18:42:10.605Z,15.90
2022-11-29T18:45:07.557Z,13.73
2022-11-29T18:47:40.014Z,15.73
2022-11-29T18:50:12.962Z,15.65
2022-11-29T18:52:45.482Z,14.18
2022-11-29T18:55:18.239Z,15.50
2022-11-29T18:57:51.384Z,14.57
2022-11-29T19:00:24.275Z,14.65
2022-11-29T19:02:56.790Z,13.57
2022-11-29T19:05:29.651Z,15.75
2022-11-29T19:08:02.228Z,13.90
2022-11-29T19:10:38.432Z,12.65
2022-11-29T19:13:10.922Z,14.68
2022-11-29T19:15:51.158Z,14.13
2022-11-29T19:18:54.022Z,12.80
2022-11-29T19:21:29.762Z,13.07
2022-11-29T19:24:16.278Z,15.25
2022-11-29T19:26:53.902Z,13.43
2022-11-29T19:29:43.228Z,13.80
2022-11-29T19:32:16.737Z,15.48
2022-11-29T19:34:52.773Z,13.48
2022-11-29T19:37:27.136Z,14.45
2022-11-29T19:39:59.621Z,14.18
2022-11-29T19:42:32.453Z,15.57
2022-11-29T19:45:16.831Z,15.82
2022-11-29T19:47:50.369Z,14.93
2022-11-29T19:50:22.901Z,14.68
2022-11-29T19:52:55.696Z,13.73
2022-11-29T19:55:28.224Z,15.05
2022-11-29T19:58:01.084Z,14.27
2022-11-29T20:00:33.676Z,14.35
2022-11-29T20:03:06.521Z,14.48
2022-11-29T20:05:39.213Z,14.38
2022-11-29T20:08:14.853Z,16.67
2022-11-29T20:10:49.751Z,14.57
2022-11-29T20:13:22.695Z,13.65
2022-11-29T20:15:55.233Z,14.48
2022-11-29T20:18:31.930Z,15.00
2022-11-29T20:21:13.696Z,13.82
2022-11-29T20:23:46.609Z,13.25
2022-11-29T20:26:20.420Z,14.80
2022-11-29T20:28:53.183Z,14.90
2022-11-29T20:31:25.920Z,15.30
2022-11-29T20:33:59.188Z,15.82
2022-11-29T20:36:37.488Z,15.70
2022-11-29T20:39:37.896Z,14.38
2022-11-29T20:42:31.958Z,13.82
2022-11-29T20:45:08.579Z,14.65
2022-11-29T20:47:47.077Z,14.73
2022-11-29T20:50:26.037Z,16.60
2022-11-29T20:53:30.394Z,14.57
2022-11-29T20:56:04.924Z,14.93
2022-11-29T20:58:39.147Z,14.40
2022-11-29T21:01:12.237Z,14.45
2022-11-29T21:03:44.784Z,13.63
2022-11-29T21:06:17.704Z,14.70
2022-11-29T21:08:51.216Z,14.10
2022-11-29T21:11:25.397Z,14.13
2022-11-29T21:13:58.383Z,14.15
2022-11-29T21:16:31.894Z,13.40
2022-11-29T21:19:04.789Z,14.23
2022-11-29T21:21:46.520Z,14.38
2022-11-29T21:24:24.722Z,13.75
2022-11-29T21:26:57.677Z,15.65
2022-11-29T21:29:30.504Z,13.63
2022-11-29T21:32:03.812Z,14.93
2022-11-29T21:34:36.308Z,14.80
2022-11-29T21:37:09.675Z,14.35
2022-11-29T21:39:42.448Z,13.80
2022-11-29T21:42:26.450Z,16.20
2022-11-29T21:44:58.978Z,13.25
2022-11-29T21:47:32.491Z,15.13
2022-11-29T21:50:05.662Z,14.98
2022-11-29T21:52:38.661Z,16.05
2022-11-29T21:55:13.560Z,14.32
2022-11-29T21:57:48.174Z,15.30
2022-11-29T22:00:21.084Z,13.77
2022-11-29T22:02:55.935Z,14.57
2022-11-29T22:05:28.462Z,15.05
2022-11-29T22:08:01.308Z,14.43
2022-11-29T22:10:37.239Z,13.82
2022-11-29T22:13:17.620Z,15.63
2022-11-29T22:15:53.520Z,14.52
2022-11-29T22:18:30.618Z,13.75
2022-11-29T22:21:05.800Z,13.68
2022-11-29T22:23:38.667Z,14.32
2022-11-29T22:26:16.672Z,13.73
2022-11-29T22:33:47.720Z,13.32
2022-11-29T22:36:25.000Z,14.38
2022-11-29T22:38:57.528Z,14.07
2022-11-29T22:41:32.025Z,13.65
2022-11-29T22:44:05.007Z,13.90
2022-11-29T22:46:40.720Z,14.63
2022-11-29T22:49:13.335Z,14.38
2022-11-29T22:51:46.208Z,16.58
2022-11-29T22:54:18.733Z,14.02
2022-11-29T22:56:52.380Z,14.63
2022-11-29T22:59:24.828Z,13.75
2022-11-29T23:01:57.693Z,13.98
2022-11-29T23:04:30.302Z,13.02
2022-11-29T23:07:03.083Z,14.15
2022-11-29T23:09:35.599Z,15.18
2022-11-29T23:12:08.390Z,14.15
2022-11-29T23:14:40.879Z,13.70
2022-11-29T23:17:13.620Z,14.50
2022-11-29T23:19:46.118Z,12.30
2022-11-29T23:22:19.122Z,15.30
2022-11-29T23:24:51.647Z,14.35
2022-11-29T23:27:24.435Z,13.25
2022-11-29T23:29:56.914Z,11.70
2022-11-29T23:32:29.690Z,13.63
2022-11-29T23:35:02.154Z,13.57
2022-11-29T23:37:34.955Z,14.73
2022-11-29T23:40:08.162Z,12.80
2022-11-29T23:42:45.005Z,13.43
2022-11-29T23:45:19.579Z,13.82
2022-11-29T23:47:52.446Z,12.52
2022-11-29T23:50:25.015Z,14.30
2022-11-29T23:52:57.819Z,12.95
2022-11-29T23:55:30.618Z,14.60
2022-11-29T23:58:03.453Z,13.25
